createdAt,value
2023-09-27T00:04:30.712Z,16.63
2023-09-27T00:09:36.328Z,16.53
2023-09-27T00:14:44.119Z,17.10
2023-09-27T00:19:49.676Z,18.10
2023-09-27T00:24:55.266Z,19.67
2023-09-27T00:30:03.356Z,17.27
2023-09-27T00:35:16.238Z,18.20
2023-09-27T00:40:24.049Z,16.03
2023-09-27T00:45:32.031Z,14.90
2023-09-27T00:50:37.636Z,14.83
2023-09-27T00:55:42.880Z,19.20
2023-09-27T01:00:53.734Z,17.80
2023-09-27T01:05:59.223Z,16.60
2023-09-27T01:11:05.762Z,17.37
2023-09-27T01:16:13.709Z,17.47
2023-09-27T01:21:20.812Z,22.00
2023-09-27T01:26:31.100Z,17.67
2023-09-27T01:31:36.841Z,21.43
2023-09-27T01:36:42.210Z,14.00
2023-09-27T01:41:50.346Z,15.00
2023-09-27T01:46:56.137Z,16.43
2023-09-27T01:52:01.781Z,18.37
2023-09-27T01:57:10.050Z,17.30
2023-09-27T02:02:15.396Z,13.87
2023-09-27T02:07:20.695Z,15.93
2023-09-27T02:12:28.660Z,13.23
2023-09-27T02:17:34.168Z,16.00
2023-09-27T02:22:39.794Z,13.93
2023-09-27T02:27:48.153Z,16.13
2023-09-27T02:32:54.239Z,16.60
2023-09-27T02:37:59.536Z,12.03
2023-09-27T02:43:07.586Z,17.40
2023-09-27T02:48:12.882Z,18.77
2023-09-27T02:53:18.243Z,20.37
2023-09-27T02:58:34.648Z,15.23
2023-09-27T03:03:39.900Z,12.77
2023-09-27T03:08:45.738Z,12.23
2023-09-27T03:13:53.593Z,19.87
2023-09-27T03:18:59.940Z,14.67
2023-09-27T03:24:06.955Z,13.10
2023-09-27T03:29:19.817Z,16.73
2023-09-27T03:34:32.953Z,13.37
2023-09-27T03:39:38.787Z,13.33
2023-09-27T03:44:48.794Z,11.17
2023-09-27T03:49:56.238Z,16.60
2023-09-27T03:55:02.841Z,12.60
2023-09-27T04:00:18.482Z,13.03
2023-09-27T04:05:28.669Z,17.33
2023-09-27T04:10:35.428Z,15.33
2023-09-27T04:15:43.391Z,15.53
2023-09-27T04:20:48.831Z,13.20
2023-09-27T04:25:54.012Z,14.40
2023-09-27T04:31:02.492Z,13.93
2023-09-27T04:36:12.490Z,14.10
2023-09-27T04:41:19.422Z,22.60
2023-09-27T04:46:31.077Z,14.17
2023-09-27T04:51:37.277Z,20.10
2023-09-27T04:56:42.526Z,21.83
2023-09-27T05:01:50.342Z,15.77
2023-09-27T05:06:55.878Z,16.83
2023-09-27T05:12:01.728Z,15.87
2023-09-27T05:17:11.037Z,15.20
2023-09-27T05:22:20.595Z,16.63
2023-09-27T05:27:25.833Z,15.27
2023-09-27T05:32:36.745Z,16.63
2023-09-27T05:37:43.053Z,20.20
2023-09-27T05:42:48.508Z,18.07
2023-09-27T05:47:57.854Z,18.90
2023-09-27T05:53:06.569Z,22.20
2023-09-27T05:58:11.971Z,20.20
2023-09-27T06:03:19.803Z,14.70
2023-09-27T06:08:30.345Z,19.20
2023-09-27T06:13:38.833Z,15.20
2023-09-27T06:18:49.309Z,14.53
2023-09-27T06:23:54.476Z,14.80
2023-09-27T06:28:59.672Z,14.00
2023-09-27T06:34:10.300Z,12.20
2023-09-27T06:39:20.982Z,14.10
2023-09-27T06:44:26.703Z,11.83
2023-09-27T06:49:37.478Z,13.35
2023-09-27T06:54:46.822Z,11.07
2023-09-27T06:59:53.415Z,9.93
2023-09-27T07:05:10.746Z,8.00
2023-09-27T07:10:18.276Z,9.43
2023-09-27T07:15:25.194Z,10.20
2023-09-27T07:20:34.660Z,12.32
2023-09-27T07:25:39.984Z,9.40
2023-09-27T07:30:46.604Z,9.52
2023-09-27T07:35:54.421Z,9.65
2023-09-27T07:41:02.966Z,10.00
2023-09-27T07:46:09.633Z,10.48
2023-09-27T07:51:20.256Z,9.00
2023-09-27T07:56:27.748Z,8.85
2023-09-27T08:01:34.766Z,10.07
2023-09-27T08:06:46.869Z,9.63
2023-09-27T08:11:52.287Z,9.27
2023-09-27T08:16:57.617Z,7.65
2023-09-27T08:22:07.459Z,11.25
2023-09-27T08:27:13.784Z,10.52
2023-09-27T08:32:19.138Z,9.85
2023-09-27T08:37:27.013Z,10.25
2023-09-27T08:42:36.034Z,11.73
2023-09-27T08:47:47.990Z,9.98
2023-09-27T08:52:57.489Z,9.93
2023-09-27T08:58:03.486Z,9.73
2023-09-27T09:03:12.441Z,10.00
2023-09-27T09:08:42.299Z,14.40
2023-09-27T09:14:06.159Z,12.70
2023-09-27T09:24:36.560Z,8.85
2023-09-27T09:29:53.263Z,9.27
2023-09-27T09:34:59.650Z,15.82
2023-09-27T09:40:14.584Z,8.13
2023-09-27T09:45:21.275Z,9.93
2023-09-27T09:50:28.378Z,10.02
2023-09-27T09:56:01.137Z,9.45
2023-09-27T10:01:06.740Z,11.32
2023-09-27T10:06:12.856Z,7.63
2023-09-27T10:11:24.770Z,12.38
2023-09-27T10:16:33.409Z,12.18
2023-09-27T10:21:50.934Z,10.50
2023-09-27T10:27:03.789Z,8.38
2023-09-27T10:32:25.342Z,11.02
2023-09-27T10:38:08.501Z,6.68
2023-09-27T10:43:48.853Z,10.07
2023-09-27T10:48:57.356Z,15.60
2023-09-27T10:54:03.539Z,10.35
2023-09-27T10:59:12.661Z,8.55
2023-09-27T11:04:21.392Z,9.40
2023-09-27T11:09:28.623Z,6.78
2023-09-27T11:14:50.245Z,12.73
2023-09-27T11:19:56.786Z,8.18
2023-09-27T11:25:06.796Z,10.43
2023-09-27T11:30:28.706Z,6.18
2023-09-27T11:35:34.115Z,8.68
2023-09-27T11:40:40.151Z,7.50
2023-09-27T11:45:49.627Z,8.57
2023-09-27T11:50:55.490Z,5.53
2023-09-27T11:56:05.097Z,9.50
2023-09-27T12:01:16.870Z,7.57
2023-09-27T12:06:23.464Z,8.27
2023-09-27T12:11:29.612Z,12.38
2023-09-27T12:16:39.828Z,8.35
2023-09-27T12:21:45.517Z,6.00
2023-09-27T12:26:53.115Z,8.07
2023-09-27T12:32:03.224Z,8.90
2023-09-27T12:37:28.486Z,8.38
2023-09-27T12:42:35.074Z,7.45
2023-09-27T12:47:43.619Z,7.35
2023-09-27T12:52:51.028Z,7.95
2023-09-27T12:57:57.433Z,10.40
2023-09-27T13:03:05.918Z,9.50
2023-09-27T13:08:12.532Z,8.55
2023-09-27T13:13:18.593Z,12.18
2023-09-27T13:18:27.101Z,5.70
2023-09-27T13:23:32.895Z,7.20
2023-09-27T13:28:40.110Z,8.07
2023-09-27T13:33:58.968Z,7.47
2023-09-27T13:39:15.312Z,7.97
2023-09-27T13:44:24.504Z,6.18
2023-09-27T13:49:32.420Z,9.55
2023-09-27T13:54:37.474Z,11.57
2023-09-27T13:59:43.708Z,8.25
2023-09-27T14:04:57.023Z,9.10
2023-09-27T14:10:05.584Z,7.20
2023-09-27T14:15:13.910Z,10.98
2023-09-27T14:20:26.788Z,7.63
2023-09-27T14:25:32.521Z,10.88
2023-09-27T14:30:38.571Z,9.43
2023-09-27T14:40:55.212Z,10.15
2023-09-27T14:46:02.375Z,6.05
2023-09-27T14:51:16.535Z,11.57
2023-09-27T14:56:22.793Z,6.95
2023-09-27T15:01:28.026Z,9.80
2023-09-27T15:06:35.917Z,6.43
2023-09-27T15:11:40.948Z,6.20
2023-09-27T15:16:47.135Z,7.22
2023-09-27T15:21:56.204Z,7.88
2023-09-27T15:27:01.827Z,9.07
2023-09-27T15:32:07.216Z,7.97
2023-09-27T15:37:15.208Z,6.60
2023-09-27T15:42:25.287Z,9.02
2023-09-27T15:47:31.075Z,8.55
2023-09-27T15:52:41.831Z,8.05
2023-09-27T15:57:47.145Z,8.25
2023-09-27T16:02:52.751Z,11.27
2023-09-27T16:08:01.533Z,6.45
2023-09-27T16:13:07.480Z,15.77
2023-09-27T16:18:16.066Z,9.02
2023-09-27T16:23:24.352Z,8.33
2023-09-27T16:28:31.339Z,7.70
2023-09-27T16:33:37.571Z,13.20
2023-09-27T16:38:45.565Z,10.97
2023-09-27T16:43:51.449Z,14.23
2023-09-27T16:48:56.667Z,14.13
2023-09-27T16:54:07.679Z,12.27
2023-09-27T16:59:12.950Z,10.13
2023-09-27T17:04:18.002Z,11.63
2023-09-27T17:09:25.832Z,11.20
2023-09-27T17:14:31.050Z,14.17
2023-09-27T17:19:37.347Z,10.43
2023-09-27T17:24:45.050Z,15.57
2023-09-27T17:29:50.317Z,12.70
2023-09-27T17:34:55.546Z,14.50
2023-09-27T17:40:08.757Z,12.60
2023-09-27T17:45:16.786Z,13.27
2023-09-27T17:50:21.954Z,14.03
2023-09-27T17:55:30.034Z,15.63
2023-09-27T18:00:35.172Z,14.93
2023-09-27T18:05:41.603Z,13.40
2023-09-27T18:10:51.348Z,15.63
2023-09-27T18:15:56.563Z,14.90
2023-09-27T18:21:12.937Z,11.83
2023-09-27T18:26:23.919Z,14.57
2023-09-27T18:31:33.981Z,16.20
2023-09-27T18:36:39.520Z,10.57
2023-09-27T18:41:47.737Z,11.10
2023-09-27T18:46:54.902Z,8.77
2023-09-27T18:52:02.127Z,15.63
2023-09-27T18:57:09.969Z,13.43
2023-09-27T19:02:19.204Z,15.70
2023-09-27T19:07:27.114Z,12.73
2023-09-27T19:12:35.436Z,15.27
2023-09-27T19:17:41.126Z,14.47
2023-09-27T19:22:46.537Z,11.57
2023-09-27T19:27:54.724Z,15.43
2023-09-27T19:33:00.592Z,14.83
2023-09-27T19:38:05.950Z,13.73
2023-09-27T19:43:15.921Z,10.90
2023-09-27T19:48:23.529Z,18.63
2023-09-27T19:53:28.768Z,12.07
2023-09-27T19:58:37.045Z,16.13
2023-09-27T20:03:42.317Z,15.53
2023-09-27T20:08:49.707Z,15.00
2023-09-27T20:13:58.081Z,16.97
2023-09-27T20:19:05.464Z,13.77
2023-09-27T20:24:12.212Z,16.03
2023-09-27T20:29:20.018Z,13.87
2023-09-27T20:34:25.348Z,13.50
2023-09-27T20:39:33.841Z,16.53
2023-09-27T20:44:41.848Z,14.50
2023-09-27T20:49:47.107Z,13.07
2023-09-27T20:54:52.448Z,16.57
2023-09-27T21:00:00.588Z,16.60
2023-09-27T21:05:06.086Z,16.97
2023-09-27T21:10:13.438Z,16.90
2023-09-27T21:15:23.610Z,23.07
2023-09-27T21:20:28.766Z,11.97
2023-09-27T21:25:33.910Z,12.57
2023-09-27T21:30:41.705Z,11.83
2023-09-27T21:35:46.741Z,14.73
2023-09-27T21:40:53.111Z,13.93
2023-09-27T21:46:01.268Z,13.43
2023-09-27T21:51:06.527Z,13.60
2023-09-27T21:56:16.204Z,13.43
2023-09-27T22:01:23.941Z,13.43
2023-09-27T22:06:30.669Z,13.57
2023-09-27T22:11:40.309Z,12.90
2023-09-27T22:16:50.412Z,10.50
2023-09-27T22:21:59.471Z,8.10
2023-09-27T22:27:09.119Z,12.70
2023-09-27T22:32:16.886Z,8.80
2023-09-27T22:37:25.705Z,9.20
2023-09-27T22:42:33.154Z,7.07
2023-09-27T22:47:40.839Z,13.07
2023-09-27T22:52:49.507Z,10.33
2023-09-27T22:57:55.667Z,9.47
2023-09-27T23:03:03.569Z,19.27
2023-09-27T23:08:10.996Z,10.03
2023-09-27T23:13:31.113Z,10.63
2023-09-27T23:18:39.153Z,7.97
2023-09-27T23:23:57.506Z,11.00
2023-09-27T23:29:29.218Z,18.23
2023-09-27T23:34:38.679Z,12.70
2023-09-27T23:39:48.642Z,11.80
2023-09-27T23:44:55.203Z,13.90
2023-09-27T23:50:05.212Z,9.43
2023-09-27T23:55:12.635Z,12.27
